Boynton Beach, Florida
Current Conditions -  °F | °C
As of 8:53 AM on Sunday 23 Nov 2014 (Local Time) from KPBI Reporting Station
Scattered Clouds Scattered Clouds  
Wind Chill: 27°   Ceiling: Unl
Heat Index: 30°   Visibility: 10mi
Dew Point: 23°   Wind: 17mph
Humidity: 77%   Direction: 150°SSE
Pressure: 30.03"   Gusts: 28mph
Location:  26.53°N, 80.06°W
Report Text: KPBI 231353Z 15015G24KT 10SM FEW018 SCT024 27/23 A3003 RMK AO2 PK WND 15026/1326 SLP168 T02720228
Loading
Personal Weather Stations






























Interactive Weather Map New forecast layout! Learn more

10-Day Weather Forecast

Advertisements
Track Severe Weather on mobile